This is the latest recevied weather packets stored in our database for station/object SV2HZE-18. If no packets are shown the sender has not sent any weather packets the latest 10 day(s).
| Time | Temp. | Humidity | Pressure | Rain* | Wind** | Luminosity | Snow |
|---|---|---|---|---|---|---|---|
| 1787776600 | 27.22° C | 57% | 1015.7 hPa | - | - | - | - |
| 1787775689 | 27.78° C | 57% | 1015.5 hPa | - | - | - | - |
| 1787773891 | 27.78° C | 56% | 1015.3 hPa | - | - | - | - |
| 1787772988 | 28.33° C | 56% | 1015.2 hPa | - | - | - | - |
| 1787772085 | 28.33° C | 53% | 1015.2 hPa | - | - | - | - |
| 1787771183 | 28.89° C | 52% | 1015.1 hPa | - | - | - | - |
| 1787770283 | 28.89° C | 50% | 1014.8 hPa | - | - | - | - |
| 1787769380 | 29.44° C | 49% | 1014.7 hPa | - | - | - | - |
| 1787768479 | 28.89° C | 51% | 1014.8 hPa | - | - | - | - |
| 1787767582 | 28.89° C | 52% | 1014.6 hPa | - | - | - | - |
| 1787766686 | 29.44° C | 50% | 1014.7 hPa | - | - | - | - |
| 1787765781 | 30° C | 43% | 1014.7 hPa | - | - | - | - |
| 1787764879 | 30° C | 45% | 1014.1 hPa | - | - | - | - |
| 1787763979 | 30° C | 46% | 1014 hPa | - | - | - | - |
| 1787763079 | 30° C | 44% | 1013.7 hPa | - | - | - | - |
| 1787762179 | 30.56° C | 44% | 1013.6 hPa | - | - | - | - |
| 1787761278 | 30.56° C | 44% | 1013.4 hPa | - | - | - | - |
| 1787760378 | 31.11° C | 40% | 1013.3 hPa | - | - | - | - |
| 1787759478 | 31.11° C | 38% | 1013.2 hPa | - | - | - | - |
| 1787758578 | 31.11° C | 41% | 1013.3 hPa | - | - | - | - |
| 1787757678 | 31.11° C | 43% | 1013.2 hPa | - | - | - | - |
| 1787756781 | 31.11° C | 47% | 1013.3 hPa | - | - | - | - |
| 1787755878 | 30.56° C | 51% | 1013.5 hPa | - | - | - | - |
| 1787754981 | 30° C | 54% | 1013.6 hPa | - | - | - | - |
| 1787754081 | 30° C | 56% | 1013.5 hPa | - | - | - | - |
* Rain since midnight (hover to see other rain measurements)
** Current wind speed in m/s (hover to see current wind gust speed)